createdAt,value
2023-01-17T00:02:24.531Z,98396.09
2023-01-17T00:05:46.309Z,98397.81
2023-01-17T00:09:09.744Z,98387.50
2023-01-17T00:12:12.746Z,98387.50
2023-01-17T00:15:16.820Z,98383.31
2023-01-17T00:18:19.688Z,98385.84
2023-01-17T00:21:42.029Z,98384.13
2023-01-17T00:25:07.045Z,98386.81
2023-01-17T00:28:13.767Z,98388.53
2023-01-17T00:31:17.855Z,98384.19
2023-01-17T00:34:21.514Z,98382.53
2023-01-17T00:37:24.179Z,98387.69
2023-01-17T00:40:26.725Z,98384.28
2023-01-17T00:43:49.724Z,98382.53
2023-01-17T00:47:10.785Z,98376.53
2023-01-17T00:50:32.481Z,98372.16
2023-01-17T00:53:54.134Z,98373.03
2023-01-17T00:57:16.357Z,98384.28
2023-01-17T01:00:37.978Z,98385.94
2023-01-17T01:03:59.593Z,98379.03
2023-01-17T01:07:21.753Z,98385.03
2023-01-17T01:10:43.213Z,98391.13
2023-01-17T01:14:05.234Z,98399.69
2023-01-17T01:17:27.123Z,98390.06
2023-01-17T01:20:48.674Z,98389.25
2023-01-17T01:24:10.557Z,98390.13
2023-01-17T01:27:32.757Z,98388.41
2023-01-17T01:30:55.335Z,98398.81
2023-01-17T01:33:57.949Z,98401.31
2023-01-17T01:37:01.665Z,98403.97
2023-01-17T01:40:07.506Z,98404.88
2023-01-17T01:43:13.191Z,98400.63
2023-01-17T01:46:19.593Z,98405.00
2023-01-17T01:49:25.886Z,98396.34
2023-01-17T01:52:37.056Z,98389.41
2023-01-17T01:55:42.304Z,98384.28
2023-01-17T01:58:49.727Z,98372.16
2023-01-17T02:01:58.288Z,98357.53
2023-01-17T02:05:04.433Z,98350.66
2023-01-17T02:08:10.812Z,98354.09
2023-01-17T02:11:13.933Z,98354.97
2023-01-17T02:14:18.502Z,98356.72
2023-01-17T02:17:50.351Z,98353.28
2023-01-17T02:21:10.163Z,98361.87
2023-01-17T02:24:25.821Z,98360.25
2023-01-17T02:27:52.250Z,98351.72
2023-01-17T02:31:17.794Z,98350.84
2023-01-17T02:34:34.843Z,98344.06
2023-01-17T02:37:43.108Z,98347.66
2023-01-17T02:40:53.123Z,98357.22
2023-01-17T02:43:57.705Z,98337.50
2023-01-17T02:47:00.475Z,98327.25
2023-01-17T02:50:13.780Z,98306.59
2023-01-17T02:53:32.043Z,98292.03
2023-01-17T02:56:54.035Z,98277.47
2023-01-17T03:00:05.807Z,98277.44
2023-01-17T03:03:31.017Z,98279.16
2023-01-17T03:06:56.607Z,98267.94
2023-01-17T03:10:03.649Z,98265.41
2023-01-17T03:13:06.342Z,98271.47
2023-01-17T03:16:18.042Z,98261.97
2023-01-17T03:19:21.251Z,98262.87
2023-01-17T03:22:24.449Z,98258.59
2023-01-17T03:25:27.411Z,98265.50
2023-01-17T03:28:30.670Z,98243.06
2023-01-17T03:31:33.672Z,98238.81
2023-01-17T03:34:36.877Z,98231.94
2023-01-17T03:37:39.638Z,98220.72
2023-01-17T03:40:42.902Z,98220.72
2023-01-17T03:43:45.662Z,98219.81
2023-01-17T03:46:50.027Z,98222.44
2023-01-17T03:49:53.698Z,98223.31
2023-01-17T03:52:56.859Z,98227.66
2023-01-17T03:56:00.369Z,98225.09
2023-01-17T03:59:05.000Z,98219.09
2023-01-17T04:02:07.833Z,98216.50
2023-01-17T04:05:13.046Z,98221.69
2023-01-17T04:08:16.523Z,98224.31
2023-01-17T04:11:19.557Z,98229.47
2023-01-17T04:14:22.127Z,98216.59
2023-01-17T04:17:24.963Z,98220.03
2023-01-17T04:20:39.141Z,98225.22
2023-01-17T04:23:41.906Z,98226.16
2023-01-17T04:26:45.033Z,98226.19
2023-01-17T04:29:47.938Z,98242.59
2023-01-17T04:32:51.347Z,98234.88
2023-01-17T04:35:57.109Z,98236.66
2023-01-17T04:39:00.390Z,98230.66
2023-01-17T04:42:03.405Z,98226.34
2023-01-17T04:45:08.482Z,98238.44
2023-01-17T04:48:17.266Z,98241.00
2023-01-17T04:51:20.331Z,98229.78
2023-01-17T04:54:25.005Z,98230.69
2023-01-17T04:57:28.878Z,98241.06
2023-01-17T05:00:32.929Z,98251.34
2023-01-17T05:03:35.833Z,98247.00
2023-01-17T05:06:39.342Z,98248.72
2023-01-17T05:09:43.716Z,98251.25
2023-01-17T05:12:57.210Z,98249.53
2023-01-17T05:16:00.193Z,98250.44
2023-01-17T05:19:04.244Z,98248.66
2023-01-17T05:22:16.024Z,98245.22
2023-01-17T05:25:24.661Z,98245.25
2023-01-17T05:28:27.328Z,98244.41
2023-01-17T05:31:40.236Z,98251.25
2023-01-17T05:34:47.587Z,98249.50
2023-01-17T05:37:53.072Z,98267.59
2023-01-17T05:40:55.690Z,98270.13
2023-01-17T05:44:00.388Z,98276.09
2023-01-17T05:47:07.952Z,98280.41
2023-01-17T05:50:18.036Z,98288.13
2023-01-17T05:53:22.085Z,98288.09
2023-01-17T05:56:25.742Z,98294.13
2023-01-17T05:59:36.884Z,98294.97
2023-01-17T06:02:45.421Z,98305.28
2023-01-17T06:05:50.239Z,98306.16
2023-01-17T06:08:59.961Z,98306.19
2023-01-17T06:12:09.659Z,98308.81
2023-01-17T06:15:24.155Z,98301.97
2023-01-17T06:18:27.399Z,98310.72
2023-01-17T06:21:30.802Z,98319.34
2023-01-17T06:24:34.223Z,98317.72
2023-01-17T06:27:37.275Z,98316.00
2023-01-17T06:30:41.902Z,98328.88
2023-01-17T06:33:51.279Z,98342.69
2023-01-17T06:36:54.974Z,98354.75
2023-01-17T06:40:09.487Z,98359.91
2023-01-17T06:43:14.278Z,98371.00
2023-01-17T06:46:19.453Z,98373.59
2023-01-17T06:49:22.533Z,98368.41
2023-01-17T06:52:26.127Z,98382.16
2023-01-17T06:55:33.833Z,98390.81
2023-01-17T06:58:38.030Z,98389.94
2023-01-17T07:01:42.090Z,98394.19
2023-01-17T07:04:52.317Z,98408.84
2023-01-17T07:07:56.091Z,98404.53
2023-01-17T07:11:06.244Z,98412.19
2023-01-17T07:14:13.800Z,98408.66
2023-01-17T07:17:17.120Z,98416.37
2023-01-17T07:20:22.094Z,98432.66
2023-01-17T07:23:32.230Z,98433.50
2023-01-17T07:26:44.445Z,98435.16
2023-01-17T07:29:49.818Z,98441.16
2023-01-17T07:32:56.665Z,98447.13
2023-01-17T07:36:07.014Z,98454.00
2023-01-17T07:39:11.492Z,98463.50
2023-01-17T07:42:16.385Z,98472.94
2023-01-17T07:45:22.081Z,98485.03
2023-01-17T07:48:29.233Z,98491.97
2023-01-17T07:51:35.057Z,98493.75
2023-01-17T07:54:40.437Z,98488.69
2023-01-17T07:57:49.355Z,98482.88
2023-01-17T08:00:52.668Z,98490.69
2023-01-17T08:04:00.450Z,98501.94
2023-01-17T08:07:04.321Z,98499.41
2023-01-17T08:10:14.152Z,98504.31
2023-01-17T08:13:17.641Z,98512.59
2023-01-17T08:16:22.215Z,98508.09
2023-01-17T08:19:26.101Z,98519.53
2023-01-17T08:22:31.147Z,98511.47
2023-01-17T08:25:35.333Z,98515.84
2023-01-17T08:28:39.132Z,98526.56
2023-01-17T08:31:50.981Z,98527.09
2023-01-17T08:34:56.672Z,98530.00
2023-01-17T08:38:09.288Z,98545.50
2023-01-17T08:41:21.739Z,98538.91
2023-01-17T08:44:26.983Z,98532.69
2023-01-17T08:47:31.480Z,98535.44
2023-01-17T08:50:36.046Z,98537.69
2023-01-17T08:53:39.069Z,98539.31
2023-01-17T08:56:47.023Z,98540.53
2023-01-17T08:59:50.952Z,98539.84
2023-01-17T09:02:55.231Z,98547.72
2023-01-17T09:06:12.548Z,98550.38
2023-01-17T09:09:17.857Z,98569.38
2023-01-17T09:12:22.915Z,98563.06
2023-01-17T09:15:27.176Z,98561.97
2023-01-17T09:18:34.271Z,98567.37
2023-01-17T09:21:38.324Z,98560.25
2023-01-17T09:24:42.197Z,98555.13
2023-01-17T09:27:48.257Z,98558.88
2023-01-17T09:30:51.490Z,98559.91
2023-01-17T09:33:56.235Z,98566.06
2023-01-17T09:36:59.620Z,98565.94
2023-01-17T09:40:08.009Z,98582.53
2023-01-17T09:43:21.010Z,98582.63
2023-01-17T09:46:39.343Z,98592.13
2023-01-17T09:49:47.250Z,98602.56
2023-01-17T09:53:00.855Z,98599.94
2023-01-17T09:56:26.072Z,98597.94
2023-01-17T09:59:45.613Z,98606.69
2023-01-17T10:03:17.375Z,98610.41
2023-01-17T10:06:51.203Z,98605.16
2023-01-17T10:09:58.693Z,98597.91
2023-01-17T10:13:24.633Z,98589.59
2023-01-17T10:16:42.379Z,98601.88
2023-01-17T10:20:01.183Z,98593.44
2023-01-17T10:23:28.106Z,98589.41
2023-01-17T10:26:33.565Z,98592.00
2023-01-17T10:29:36.969Z,98590.31
2023-01-17T10:32:48.295Z,98587.06
2023-01-17T10:36:05.345Z,98587.97
2023-01-17T10:39:26.255Z,98584.31
2023-01-17T10:42:38.171Z,98572.59
2023-01-17T10:45:49.171Z,98570.47
2023-01-17T10:48:53.972Z,98569.97
2023-01-17T10:52:23.035Z,98558.56
2023-01-17T10:55:36.222Z,98564.25
2023-01-17T10:58:39.979Z,98573.88
2023-01-17T11:01:43.740Z,98565.03
2023-01-17T11:04:55.019Z,98564.78
2023-01-17T11:08:04.100Z,98542.88
2023-01-17T11:11:09.113Z,98546.22
2023-01-17T11:14:27.968Z,98540.09
2023-01-17T11:17:34.084Z,98545.13
2023-01-17T11:20:40.124Z,98548.47
2023-01-17T11:23:51.044Z,98521.38
2023-01-17T11:26:54.413Z,98530.94
2023-01-17T11:30:18.807Z,98526.50
2023-01-17T11:33:49.149Z,98513.56
2023-01-17T11:37:20.301Z,98513.69
2023-01-17T11:40:41.721Z,98512.75
2023-01-17T11:43:52.174Z,98517.97
2023-01-17T11:47:15.822Z,98524.72
2023-01-17T11:50:26.303Z,98538.69
2023-01-17T11:53:35.549Z,98532.63
2023-01-17T11:56:47.642Z,98540.31
2023-01-17T12:00:00.536Z,98539.41
2023-01-17T12:03:26.345Z,98539.38
2023-01-17T12:06:58.784Z,98542.78
2023-01-17T12:10:15.021Z,98546.44
2023-01-17T12:13:56.944Z,98549.72
2023-01-17T12:17:09.035Z,98548.88
2023-01-17T12:20:46.604Z,98548.88
2023-01-17T12:23:59.294Z,98540.00
2023-01-17T12:27:14.523Z,98532.06
2023-01-17T12:30:32.995Z,98528.66
2023-01-17T12:33:57.157Z,98529.59
2023-01-17T12:37:24.764Z,98527.09
2023-01-17T12:40:46.242Z,98530.56
2023-01-17T12:43:54.399Z,98522.81
2023-01-17T12:47:05.022Z,98521.03
2023-01-17T12:50:43.985Z,98529.63
2023-01-17T12:54:30.253Z,98523.47
2023-01-17T12:57:40.939Z,98519.97
2023-01-17T13:00:52.126Z,98516.16
2023-01-17T13:04:33.587Z,98515.09
2023-01-17T13:07:54.038Z,98520.19
2023-01-17T13:11:13.297Z,98527.00
2023-01-17T13:14:18.000Z,98530.25
2023-01-17T13:17:32.031Z,98537.97
2023-01-17T13:20:57.056Z,98536.19
2023-01-17T13:24:13.014Z,98540.34
2023-01-17T13:27:36.435Z,98543.72
2023-01-17T13:30:58.039Z,98538.37
2023-01-17T13:34:25.553Z,98520.06
2023-01-17T13:37:47.380Z,98519.16
2023-01-17T13:40:59.095Z,98508.72
2023-01-17T13:44:24.982Z,98506.91
2023-01-17T13:47:45.016Z,98507.69
2023-01-17T13:51:07.010Z,98508.56
2023-01-17T13:54:31.336Z,98493.81
2023-01-17T13:57:46.838Z,98471.31
2023-01-17T14:00:50.934Z,98479.91
2023-01-17T14:04:08.198Z,98457.41
2023-01-17T14:07:27.143Z,98443.53
2023-01-17T14:10:48.114Z,98429.59
2023-01-17T14:13:54.951Z,98420.03
2023-01-17T14:17:43.903Z,98418.28
2023-01-17T14:21:06.145Z,98407.91
2023-01-17T14:24:16.899Z,98407.06
2023-01-17T14:27:34.721Z,98395.78
2023-01-17T14:30:44.001Z,98389.72
2023-01-17T14:33:50.010Z,98386.22
2023-01-17T14:37:12.891Z,98378.44
2023-01-17T14:40:27.985Z,98378.44
2023-01-17T14:43:42.572Z,98374.09
2023-01-17T14:46:49.053Z,98371.44
2023-01-17T14:50:21.015Z,98361.94
2023-01-17T14:53:32.223Z,98360.19
2023-01-17T14:56:38.991Z,98358.47
2023-01-17T14:59:46.424Z,98362.72
2023-01-17T15:02:52.116Z,98367.06
2023-01-17T15:05:58.155Z,98371.41
2023-01-17T15:09:10.053Z,98370.53
2023-01-17T15:12:17.061Z,98365.31
2023-01-17T15:15:28.454Z,98367.06
2023-01-17T15:18:36.962Z,98365.34
2023-01-17T15:21:43.178Z,98356.78
2023-01-17T15:24:47.931Z,98361.97
2023-01-17T15:27:54.035Z,98353.31
2023-01-17T15:31:26.019Z,98345.50
2023-01-17T15:34:38.917Z,98335.97
2023-01-17T15:37:53.836Z,98336.81
2023-01-17T15:41:14.986Z,98331.63
2023-01-17T15:44:46.730Z,98322.09
2023-01-17T15:47:52.236Z,98321.28
2023-01-17T15:51:08.423Z,98303.13
2023-01-17T15:54:32.936Z,98299.66
2023-01-17T15:57:41.006Z,98307.44
2023-01-17T16:00:52.934Z,98295.34
2023-01-17T16:03:56.540Z,98291.00
2023-01-17T16:07:17.562Z,98294.47
2023-01-17T16:10:25.187Z,98298.75
2023-01-17T16:13:33.981Z,98291.00
2023-01-17T16:16:39.262Z,98289.25
2023-01-17T16:19:44.030Z,98292.69
2023-01-17T16:23:00.367Z,98286.63
2023-01-17T16:26:05.489Z,98277.94
2023-01-17T16:29:10.324Z,98276.94
2023-01-17T16:32:18.019Z,98276.03
2023-01-17T16:35:34.929Z,98272.50
2023-01-17T16:38:49.138Z,98269.88
2023-01-17T16:42:03.194Z,98266.38
2023-01-17T16:45:14.216Z,98256.75
2023-01-17T16:48:20.288Z,98246.28
2023-01-17T16:51:30.190Z,98253.97
2023-01-17T16:54:36.977Z,98247.91
2023-01-17T16:57:46.955Z,98237.53
2023-01-17T17:00:56.098Z,98250.41
2023-01-17T17:04:03.017Z,98242.56
2023-01-17T17:07:14.006Z,98239.06
2023-01-17T17:10:26.001Z,98228.69
2023-01-17T17:13:36.626Z,98220.09
2023-01-17T17:16:51.853Z,98213.16
2023-01-17T17:20:01.022Z,98209.69
2023-01-17T17:23:11.163Z,98203.59
2023-01-17T17:26:33.923Z,98189.81
2023-01-17T17:29:42.384Z,98188.91
2023-01-17T17:32:48.193Z,98178.56
2023-01-17T17:35:55.182Z,98177.66
2023-01-17T17:39:05.890Z,98173.25
2023-01-17T17:42:20.104Z,98166.38
2023-01-17T17:45:25.079Z,98137.00
2023-01-17T17:48:29.990Z,98118.03
2023-01-17T17:51:39.572Z,98114.59
2023-01-17T17:54:45.675Z,98093.88
2023-01-17T17:57:59.216Z,98087.81
2023-01-17T18:01:09.542Z,98082.63
2023-01-17T18:04:14.312Z,98067.13
2023-01-17T18:07:27.140Z,98052.41
2023-01-17T18:10:44.860Z,98034.28
2023-01-17T18:13:52.904Z,98017.88
2023-01-17T18:16:58.996Z,98008.38
2023-01-17T18:20:14.597Z,98010.97
2023-01-17T18:23:30.871Z,98000.62
2023-01-17T18:26:47.809Z,98005.78
2023-01-17T18:29:51.541Z,98004.94
2023-01-17T18:32:55.457Z,97988.59
2023-01-17T18:36:04.869Z,97984.28
2023-01-17T18:39:32.969Z,97979.13
2023-01-17T18:42:45.339Z,97977.41
2023-01-17T18:45:54.149Z,97977.41
2023-01-17T18:49:01.000Z,97967.94
2023-01-17T18:52:20.036Z,97950.72
2023-01-17T18:55:39.534Z,97947.28
2023-01-17T18:58:47.649Z,97942.87
2023-01-17T19:01:58.997Z,97942.06
2023-01-17T19:05:05.985Z,97944.56
2023-01-17T19:08:10.252Z,97927.28
2023-01-17T19:11:13.939Z,97912.59
2023-01-17T19:14:17.433Z,97894.44
2023-01-17T19:17:28.211Z,97887.53
2023-01-17T19:20:35.740Z,97873.72
2023-01-17T19:23:42.086Z,97876.31
2023-01-17T19:26:59.844Z,97889.16
2023-01-17T19:30:10.155Z,97859.91
2023-01-17T19:33:24.947Z,97861.63
2023-01-17T19:36:40.901Z,97865.13
2023-01-17T19:39:53.921Z,97846.97
2023-01-17T19:43:05.055Z,97838.34
2023-01-17T19:46:12.192Z,97822.84
2023-01-17T19:49:24.972Z,97807.31
2023-01-17T19:52:34.010Z,97797.00
2023-01-17T19:55:41.869Z,97790.06
2023-01-17T19:58:54.866Z,97789.25
2023-01-17T20:02:05.676Z,97779.81
2023-01-17T20:05:18.907Z,97772.06
2023-01-17T20:08:30.985Z,97772.97
2023-01-17T20:11:45.985Z,97766.06
2023-01-17T20:14:54.500Z,97760.06
2023-01-17T20:17:59.961Z,97783.34
2023-01-17T20:21:17.875Z,97787.69
2023-01-17T20:24:22.494Z,97799.78
2023-01-17T20:27:38.885Z,97821.37
2023-01-17T20:30:49.891Z,97828.31
2023-01-17T20:33:55.213Z,97820.59
2023-01-17T20:37:08.741Z,97806.69
2023-01-17T20:40:25.926Z,97783.44
2023-01-17T20:43:44.978Z,97798.00
2023-01-17T20:46:55.520Z,97776.41
2023-01-17T20:49:59.191Z,97775.53
2023-01-17T20:53:06.339Z,97755.69
2023-01-17T20:56:14.931Z,97741.97
2023-01-17T20:59:22.921Z,97747.16
2023-01-17T21:02:28.642Z,97737.66
2023-01-17T21:05:45.971Z,97722.97
2023-01-17T21:08:50.884Z,97721.19
2023-01-17T21:12:07.870Z,97709.88
2023-01-17T21:15:17.446Z,97707.22
2023-01-17T21:18:31.954Z,97731.31
2023-01-17T21:21:35.679Z,97704.47
2023-01-17T21:24:45.953Z,97700.94
2023-01-17T21:27:49.945Z,97663.84
2023-01-17T21:30:56.310Z,97678.38
2023-01-17T21:34:07.231Z,97671.41
2023-01-17T21:37:14.942Z,97656.78
2023-01-17T21:40:28.246Z,97655.09
2023-01-17T21:43:32.858Z,97662.75
2023-01-17T21:46:40.750Z,97656.72
2023-01-17T21:49:44.039Z,97672.16
2023-01-17T21:52:50.917Z,97672.91
2023-01-17T21:56:19.906Z,97673.78
2023-01-17T21:59:27.971Z,97671.94
2023-01-17T22:02:30.833Z,97675.31
2023-01-17T22:05:35.243Z,97658.00
2023-01-17T22:08:38.937Z,97654.44
2023-01-17T22:11:44.141Z,97647.56
2023-01-17T22:14:49.076Z,97639.81
2023-01-17T22:17:55.969Z,97648.44
2023-01-17T22:21:04.707Z,97652.09
2023-01-17T22:24:13.147Z,97650.41
2023-01-17T22:27:17.433Z,97634.78
2023-01-17T22:30:21.886Z,97627.78
2023-01-17T22:33:25.227Z,97635.44
2023-01-17T22:36:33.888Z,97650.84
2023-01-17T22:39:38.664Z,97648.19
2023-01-17T22:42:41.955Z,97666.38
2023-01-17T22:45:46.067Z,97677.69
2023-01-17T22:48:52.267Z,97686.38
2023-01-17T22:51:57.561Z,97676.91
2023-01-17T22:55:01.380Z,97668.34
2023-01-17T22:58:04.447Z,97664.69
2023-01-17T23:01:20.095Z,97665.69
2023-01-17T23:04:23.141Z,97676.03
2023-01-17T23:07:27.040Z,97681.16
2023-01-17T23:10:48.891Z,97677.75
2023-01-17T23:13:58.502Z,97684.59
2023-01-17T23:17:23.876Z,97709.66
2023-01-17T23:20:27.037Z,97716.59
2023-01-17T23:23:31.933Z,97714.75
2023-01-17T23:26:36.383Z,97734.47
2023-01-17T23:29:39.048Z,97750.91
2023-01-17T23:32:51.960Z,97747.53
2023-01-17T23:35:55.949Z,97736.53
2023-01-17T23:38:58.737Z,97740.78
2023-01-17T23:42:20.439Z,97733.09
2023-01-17T23:45:25.036Z,97723.69
2023-01-17T23:48:28.100Z,97720.22
2023-01-17T23:51:31.503Z,97731.47
2023-01-17T23:54:35.114Z,97737.37
2023-01-17T23:57:38.715Z,97755.38
